Time;durP1;ratioP1;P1;durP2;ratioP2;P2;SDS_P1;SDS_P2;PMS_P1;PMS_P2;Temp;Humidity;BMP_temperature;BMP_pressure;BME280_temperature;BME280_humidity;BME280_pressure;Samples;Min_cycle;Max_cycle;Signal;HPM_P1;HPM_P2
2021/07/08 00:01:08;;;;;;;5.30;4.07;;;21.60;44.40;;;;;;4836087;29;20211;-80
2021/07/08 00:03:34;;;;;;;4.70;4.40;;;21.60;44.40;;;;;;4806485;29;20212;-81
2021/07/08 00:05:59;;;;;;;4.13;3.93;;;21.60;44.40;;;;;;4805835;29;20280;-82
2021/07/08 00:08:25;;;;;;;4.77;4.47;;;21.60;44.40;;;;;;4807172;29;20189;-82
2021/07/08 00:10:55;;;;;;;4.30;4.07;;;21.60;44.40;;;;;;4805715;29;20193;-80
2021/07/08 00:13:25;;;;;;;4.60;4.30;;;21.60;44.40;;;;;;4807048;29;20183;-80
2021/07/08 00:15:52;;;;;;;4.00;3.80;;;21.60;44.40;;;;;;4807469;29;20429;-80
2021/07/08 00:18:20;;;;;;;4.63;4.33;;;21.60;44.40;;;;;;4806901;29;20422;-81
2021/07/08 00:20:47;;;;;;;5.20;4.90;;;21.60;44.30;;;;;;4806629;29;20422;-81
2021/07/08 00:23:17;;;;;;;4.77;4.47;;;21.60;44.30;;;;;;4806487;29;20494;-80
2021/07/08 00:25:44;;;;;;;4.00;3.70;;;21.60;44.40;;;;;;4805792;29;20833;-80
2021/07/08 00:28:12;;;;;;;4.37;4.00;;;21.60;44.30;;;;;;4805095;29;20784;-80
2021/07/08 00:30:39;;;;;;;5.13;4.83;;;21.60;44.30;;;;;;4805840;29;20430;-80
2021/07/08 00:33:05;;;;;;;4.00;3.80;;;21.60;44.30;;;;;;4804264;29;20430;-80
2021/07/08 00:35:30;;;;;;;4.30;4.00;;;21.60;44.30;;;;;;4804378;29;20469;-81
2021/07/08 00:37:56;;;;;;;4.17;3.87;;;21.60;44.30;;;;;;4807526;29;20200;-82
2021/07/08 00:40:22;;;;;;;4.43;4.13;;;21.60;44.30;;;;;;4809851;29;20642;-81
2021/07/08 00:42:48;;;;;;;4.27;3.97;;;21.60;45.00;;;;;;4808903;29;20219;-81
2021/07/08 00:45:16;;;;;;;3.80;3.60;;;21.60;44.40;;;;;;4809361;29;20223;-81
2021/07/08 00:47:43;;;;;;;4.40;4.20;;;21.60;44.30;;;;;;4810279;29;20435;-81
2021/07/08 00:50:10;;;;;;;3.50;3.30;;;21.60;44.30;;;;;;4808716;29;20430;-81
2021/07/08 00:52:37;;;;;;;4.57;4.27;;;21.60;44.30;;;;;;4810381;29;20422;-81
2021/07/08 00:55:04;;;;;;;3.93;3.73;;;21.60;44.30;;;;;;4808243;29;20470;-81
2021/07/08 00:57:30;;;;;;;4.30;4.10;;;21.60;44.30;;;;;;4809856;29;20473;-81
2021/07/08 00:59:55;;;;;;;3.80;3.60;;;21.60;44.30;;;;;;4809785;29;20913;-81
2021/07/08 01:02:23;;;;;;;3.90;3.70;;;21.60;44.30;;;;;;4809217;29;20426;-81
2021/07/08 01:04:49;;;;;;;3.87;3.67;;;21.60;44.20;;;;;;4809690;29;20208;-81
2021/07/08 01:07:19;;;;;;;4.60;4.20;;;21.60;44.20;;;;;;4810129;29;20434;-81
2021/07/08 01:09:45;;;;;;;3.77;3.57;;;21.60;44.20;;;;;;4810281;29;20942;-81
2021/07/08 01:12:10;;;;;;;4.10;3.90;;;21.60;44.20;;;;;;4809779;29;20419;-81
2021/07/08 01:14:37;;;;;;;3.83;3.63;;;21.60;44.20;;;;;;4810380;29;20181;-81
2021/07/08 01:17:06;;;;;;;3.80;3.60;;;21.60;44.20;;;;;;4813110;29;20318;-81
2021/07/08 01:19:34;;;;;;;4.10;3.90;;;21.60;44.20;;;;;;4813665;29;20484;-81
2021/07/08 01:22:00;;;;;;;4.60;4.37;;;21.60;44.20;;;;;;4813064;29;20512;-81
2021/07/08 01:24:25;;;;;;;4.50;4.30;;;21.60;44.20;;;;;;4812003;29;20516;-81
2021/07/08 01:26:53;;;;;;;4.33;4.03;;;21.60;44.20;;;;;;4812063;29;20244;-81
2021/07/08 01:29:19;;;;;;;3.70;3.50;;;21.60;44.20;;;;;;4814022;29;20258;-81
2021/07/08 01:31:45;;;;;;;4.47;4.17;;;21.60;44.20;;;;;;4813399;29;20454;-81
2021/07/08 01:34:10;;;;;;;4.40;4.20;;;21.50;44.10;;;;;;4813679;29;20945;-81
2021/07/08 01:36:36;;;;;;;4.00;3.80;;;21.60;44.20;;;;;;4813023;29;20220;-81
2021/07/08 01:39:02;;;;;;;3.70;3.50;;;21.60;44.20;;;;;;4812600;29;20657;-81
2021/07/08 01:41:28;;;;;;;4.00;3.80;;;21.60;44.20;;;;;;4813064;29;20176;-81
2021/07/08 01:43:55;;;;;;;3.80;3.60;;;21.60;44.30;;;;;;4842176;29;21004;-81
2021/07/08 01:46:22;;;;;;;4.00;3.80;;;21.60;44.20;;;;;;4813047;29;20246;-82
2021/07/08 01:48:47;;;;;;;4.13;3.93;;;21.60;44.20;;;;;;4811755;29;20430;-81
2021/07/08 01:51:28;;;;;;;3.60;3.40;;;21.60;44.20;;;;;;4810479;29;20433;-81
2021/07/08 01:53:54;;;;;;;3.63;3.43;;;21.60;44.20;;;;;;4812094;29;20594;-81
2021/07/08 01:56:20;;;;;;;3.70;3.50;;;21.60;44.20;;;;;;4812010;29;20489;-81
2021/07/08 01:58:46;;;;;;;3.60;3.30;;;21.50;44.10;;;;;;4811866;29;20275;-81
2021/07/08 02:01:12;;;;;;;3.83;3.63;;;21.50;44.00;;;;;;4810956;29;20196;-81
2021/07/08 02:03:38;;;;;;;3.73;3.53;;;21.60;44.20;;;;;;4812298;29;20470;-81
2021/07/08 02:06:06;;;;;;;3.70;3.50;;;21.60;44.10;;;;;;4810752;29;20436;-81
2021/07/08 02:08:32;;;;;;;3.33;3.13;;;21.60;44.20;;;;;;4810499;29;20184;-81
2021/07/08 02:10:58;;;;;;;3.60;3.40;;;21.60;44.20;;;;;;4812006;29;20414;-81
2021/07/08 02:13:24;;;;;;;3.50;3.30;;;21.60;44.10;;;;;;4812749;29;20185;-81
2021/07/08 02:15:50;;;;;;;3.90;3.60;;;21.60;44.10;;;;;;4811767;29;20176;-81
2021/07/08 02:18:15;;;;;;;3.63;3.50;;;21.50;44.00;;;;;;4841288;29;20434;-81
2021/07/08 02:20:41;;;;;;;4.23;4.03;;;21.50;44.00;;;;;;4811898;29;20318;-81
2021/07/08 02:23:07;;;;;;;3.50;3.30;;;21.50;44.00;;;;;;4811803;29;20173;-81
2021/07/08 02:25:32;;;;;;;4.03;3.83;;;21.50;44.00;;;;;;4811523;29;20181;-81
2021/07/08 02:27:58;;;;;;;3.80;3.60;;;21.60;44.20;;;;;;4810137;29;20204;-81
2021/07/08 02:30:26;;;;;;;3.40;3.30;;;21.60;44.10;;;;;;4812286;29;20176;-81
2021/07/08 02:32:54;;;;;;;3.67;3.47;;;21.50;44.00;;;;;;4810203;29;20427;-81
2021/07/08 02:35:21;;;;;;;4.13;3.93;;;21.50;44.00;;;;;;4810427;29;20426;-81
2021/07/08 02:37:47;;;;;;;4.07;3.80;;;21.60;44.10;;;;;;4811660;29;20962;-81
2021/07/08 02:40:16;;;;;;;3.63;3.43;;;21.60;44.10;;;;;;4811495;29;20489;-81
2021/07/08 02:42:53;;;;;;;3.60;3.40;;;21.50;44.00;;;;;;4811839;29;20177;-81
2021/07/08 02:45:30;;;;;;;4.03;3.73;;;21.60;44.10;;;;;;4811043;29;20470;-81
2021/07/08 02:47:56;;;;;;;3.70;3.50;;;21.50;44.00;;;;;;4810787;29;20480;-81
2021/07/08 02:50:25;;;;;;;3.43;3.27;;;21.50;44.00;;;;;;4810855;29;20419;-81
2021/07/08 02:52:51;;;;;;;3.70;3.50;;;21.50;44.00;;;;;;4810923;29;20482;-81
2021/07/08 02:55:17;;;;;;;3.50;3.30;;;21.50;44.00;;;;;;4810770;29;20521;-81
2021/07/08 02:57:45;;;;;;;3.40;3.20;;;21.50;44.00;;;;;;4810494;29;20208;-81
2021/07/08 03:00:17;;;;;;;3.70;3.50;;;21.50;44.00;;;;;;4809106;29;20541;-81
2021/07/08 03:02:43;;;;;;;3.80;3.60;;;21.60;44.10;;;;;;4839443;29;20430;-81
2021/07/08 03:05:10;;;;;;;3.90;3.70;;;21.50;44.00;;;;;;4809087;29;20961;-81
2021/07/08 03:07:36;;;;;;;3.50;3.30;;;21.50;44.00;;;;;;4839401;29;20236;-81
2021/07/08 03:10:04;;;;;;;3.70;3.50;;;21.50;44.00;;;;;;4810523;29;20414;-80
2021/07/08 03:12:29;;;;;;;4.13;3.90;;;21.50;44.00;;;;;;4809988;29;20429;-81
2021/07/08 03:14:55;;;;;;;3.30;3.20;;;21.50;44.00;;;;;;4809849;29;20426;-80
2021/07/08 03:17:20;;;;;;;3.73;3.53;;;21.50;44.00;;;;;;4808878;29;20217;-80
2021/07/08 03:19:46;;;;;;;3.70;3.50;;;21.50;44.00;;;;;;4809406;29;20314;-81
2021/07/08 03:22:12;;;;;;;3.60;3.40;;;21.50;43.90;;;;;;4809420;29;20209;-81
2021/07/08 03:24:37;;;;;;;3.53;3.33;;;21.50;43.90;;;;;;4808606;29;20548;-81
2021/07/08 03:27:03;;;;;;;3.90;3.70;;;21.50;43.90;;;;;;4808545;29;20205;-81
2021/07/08 03:29:29;;;;;;;3.50;3.30;;;21.50;43.90;;;;;;4808423;29;20187;-80
2021/07/08 03:31:55;;;;;;;3.47;3.30;;;21.50;43.90;;;;;;4808670;29;20188;-80
2021/07/08 03:34:20;;;;;;;3.80;3.60;;;21.50;44.00;;;;;;4808459;29;20502;-80
2021/07/08 03:36:46;;;;;;;3.80;3.67;;;21.50;44.00;;;;;;4808116;29;20249;-81
2021/07/08 03:39:11;;;;;;;3.77;3.60;;;21.50;43.90;;;;;;4806907;29;20196;-80
2021/07/08 03:41:37;;;;;;;3.70;3.60;;;21.50;43.90;;;;;;4807898;29;20238;-80
2021/07/08 03:44:03;;;;;;;3.80;3.60;;;21.50;43.90;;;;;;4837107;29;20681;-80
2021/07/08 03:46:28;;;;;;;3.67;3.47;;;21.50;43.90;;;;;;4806970;29;20281;-81
2021/07/08 03:48:54;;;;;;;3.80;3.60;;;21.50;44.60;;;;;;4807321;29;20641;-81
2021/07/08 03:51:20;;;;;;;3.53;3.37;;;21.50;43.90;;;;;;4807480;29;20209;-80
2021/07/08 03:53:45;;;;;;;3.40;3.30;;;21.50;43.90;;;;;;4806346;29;20195;-80
2021/07/08 03:56:14;;;;;;;3.67;3.50;;;21.50;43.90;;;;;;4806919;29;20593;-81
2021/07/08 03:58:40;;;;;;;3.50;3.23;;;21.50;43.90;;;;;;4805747;29;20637;-81
2021/07/08 04:01:06;;;;;;;3.43;3.33;;;21.50;43.90;;;;;;4808555;29;20430;-81
2021/07/08 04:03:31;;;;;;;3.20;3.10;;;21.50;43.90;;;;;;4810671;29;20481;-81
2021/07/08 04:06:10;;;;;;;3.80;3.60;;;21.50;43.90;;;;;;4807356;29;20192;-85
2021/07/08 04:08:35;;;;;;;3.30;3.20;;;21.50;43.90;;;;;;4836919;29;20172;-82
2021/07/08 04:11:01;;;;;;;3.57;3.37;;;21.50;43.90;;;;;;4809763;29;20482;-83
2021/07/08 04:13:29;;;;;;;3.83;3.73;;;21.50;43.90;;;;;;4810812;29;20238;-82
2021/07/08 04:15:55;;;;;;;3.73;3.53;;;21.50;43.90;;;;;;4809859;29;20208;-81
2021/07/08 04:18:21;;;;;;;4.07;3.87;;;21.50;43.90;;;;;;4811820;29;20430;-82
2021/07/08 04:20:47;;;;;;;3.70;3.60;;;21.50;43.90;;;;;;4813009;29;20641;-81
2021/07/08 04:23:14;;;;;;;3.60;3.50;;;21.50;43.90;;;;;;4811449;29;20181;-82
2021/07/08 04:25:42;;;;;;;3.73;3.53;;;21.50;43.90;;;;;;4810255;29;20418;-81
2021/07/08 04:28:09;;;;;;;3.90;3.70;;;21.50;43.90;;;;;;4809626;29;20449;-82
2021/07/08 04:30:36;;;;;;;3.90;3.70;;;21.50;43.90;;;;;;4810967;29;20423;-82
2021/07/08 04:33:02;;;;;;;3.53;3.40;;;21.50;43.90;;;;;;4811630;29;20430;-82
2021/07/08 04:35:30;;;;;;;3.37;3.20;;;21.50;43.90;;;;;;4810370;29;20428;-82
2021/07/08 04:37:57;;;;;;;3.77;3.57;;;21.50;44.00;;;;;;4808486;29;20442;-81
2021/07/08 04:40:25;;;;;;;3.67;3.47;;;21.50;44.00;;;;;;4797964;29;20862;-81
2021/07/08 04:42:51;;;;;;;3.20;3.10;;;21.50;44.00;;;;;;4791358;29;20478;-81
2021/07/08 04:45:18;;;;;;;3.80;3.60;;;21.50;43.90;;;;;;4791713;29;20475;-80
2021/07/08 04:47:44;;;;;;;3.40;3.30;;;21.50;43.90;;;;;;4792938;29;20482;-81
2021/07/08 04:50:12;;;;;;;3.07;2.97;;;21.50;43.90;;;;;;4791570;30;20484;-82
2021/07/08 04:52:38;;;;;;;3.47;3.30;;;21.50;43.90;;;;;;4793206;29;20423;-80
2021/07/08 04:55:22;;;;;;;3.10;3.00;;;21.50;43.90;;;;;;4792916;29;20427;-81
2021/07/08 04:58:09;;;;;;;3.53;3.43;;;21.50;44.60;;;;;;4791875;30;20236;-81
2021/07/08 05:01:16;;;;;;;3.87;3.60;;;21.60;44.70;;;;;;4792752;30;20442;-81
2021/07/08 05:04:04;;;;;;;3.80;3.60;;;21.60;45.10;;;;;;4797732;29;20475;-81
2021/07/08 05:06:58;;;;;;;3.80;3.50;;;21.60;45.30;;;;;;4792471;29;20439;-80
2021/07/08 05:09:35;;;;;;;4.00;3.80;;;21.60;45.50;;;;;;4792566;30;20427;-80
2021/07/08 05:12:10;;;;;;;3.97;3.77;;;21.60;45.50;;;;;;4790241;30;21200;-81
2021/07/08 05:15:08;;;;;;;3.77;3.57;;;21.70;45.40;;;;;;4791128;30;20804;-81
2021/07/08 05:17:34;;;;;;;4.03;3.83;;;21.70;45.60;;;;;;4779624;30;20459;-81
2021/07/08 05:20:09;;;;;;;4.77;4.37;;;21.70;45.70;;;;;;4792977;29;20426;-81
2021/07/08 05:22:37;;;;;;;4.80;4.30;;;21.70;45.70;;;;;;4792212;30;20185;-82
2021/07/08 05:25:05;;;;;;;4.20;3.90;;;21.70;45.80;;;;;;4790367;29;20481;-81
2021/07/08 05:27:31;;;;;;;5.10;4.80;;;21.70;45.90;;;;;;4790850;29;20451;-81
2021/07/08 05:29:57;;;;;;;5.97;5.67;;;21.70;45.90;;;;;;4793247;29;21053;-81
2021/07/08 05:32:22;;;;;;;8.13;7.63;;;21.80;46.10;;;;;;4790927;29;20450;-83
2021/07/08 05:34:48;;;;;;;8.77;8.37;;;21.80;46.80;;;;;;4794085;29;20215;-80
2021/07/08 05:37:14;;;;;;;10.87;10.33;;;21.80;46.60;;;;;;4793562;30;20220;-81
2021/07/08 05:39:48;;;;;;;11.53;10.73;;;21.80;46.80;;;;;;4793590;29;20193;-80
2021/07/08 05:42:16;;;;;;;11.50;10.80;;;21.80;46.70;;;;;;4792048;29;20192;-79
2021/07/08 05:44:44;;;;;;;12.67;11.53;;;21.80;47.00;;;;;;4792126;29;20466;-82
2021/07/08 05:47:22;;;;;;;12.00;11.20;;;21.80;47.50;;;;;;4790600;30;20471;-82
2021/07/08 05:49:48;;;;;;;12.40;11.70;;;21.80;47.00;;;;;;4792946;29;20455;-81
2021/07/08 05:52:13;;;;;;;12.07;11.07;;;21.80;46.70;;;;;;4792760;29;20434;-81
2021/07/08 05:54:39;;;;;;;12.27;11.30;;;21.80;46.70;;;;;;4821842;29;20189;-82
2021/07/08 05:57:05;;;;;;;12.90;11.80;;;21.70;46.90;;;;;;4790820;29;20201;-82
2021/07/08 05:59:30;;;;;;;12.40;11.60;;;21.70;47.00;;;;;;4789434;29;20222;-82
2021/07/08 06:01:56;;;;;;;13.07;12.17;;;21.70;47.00;;;;;;4820220;29;20468;-82
2021/07/08 06:04:22;;;;;;;11.67;10.83;;;21.70;47.00;;;;;;4793459;29;20214;-83
2021/07/08 06:06:48;;;;;;;11.93;11.23;;;21.70;47.00;;;;;;4790901;29;20228;-79
2021/07/08 06:09:13;;;;;;;10.33;9.73;;;21.70;46.90;;;;;;4791705;29;20242;-82
2021/07/08 06:11:39;;;;;;;10.90;10.30;;;21.70;46.90;;;;;;4790441;29;20192;-80
2021/07/08 06:14:04;;;;;;;11.83;11.00;;;21.70;46.80;;;;;;4791486;29;20250;-81
2021/07/08 06:16:30;;;;;;;11.57;10.63;;;21.70;46.80;;;;;;4793418;29;20258;-81
2021/07/08 06:18:55;;;;;;;12.03;11.13;;;21.70;46.60;;;;;;4791889;29;20279;-81
2021/07/08 06:21:21;;;;;;;10.33;9.63;;;21.60;46.50;;;;;;4791545;29;20189;-81
2021/07/08 06:23:47;;;;;;;10.57;9.57;;;21.60;46.50;;;;;;4792527;29;20220;-79
2021/07/08 06:26:12;;;;;;;11.37;10.37;;;21.70;46.50;;;;;;4791988;29;20208;-80
2021/07/08 06:28:41;;;;;;;10.73;10.10;;;21.70;46.40;;;;;;4790557;29;20654;-80
2021/07/08 06:31:07;;;;;;;10.07;9.47;;;21.60;46.20;;;;;;4792374;29;20227;-80
2021/07/08 06:33:32;;;;;;;9.10;8.50;;;21.60;46.30;;;;;;4791255;29;20427;-80
2021/07/08 06:35:58;;;;;;;8.90;8.20;;;21.60;46.20;;;;;;4791264;29;20182;-81
2021/07/08 06:38:23;;;;;;;9.37;8.77;;;21.60;46.20;;;;;;4789323;30;20728;-82
2021/07/08 06:40:50;;;;;;;9.13;8.63;;;21.60;46.10;;;;;;4790591;29;20194;-81
2021/07/08 06:43:15;;;;;;;9.13;8.63;;;21.60;46.10;;;;;;4790402;29;20197;-81
2021/07/08 06:45:41;;;;;;;8.43;7.83;;;21.60;46.00;;;;;;4790367;29;20450;-81
2021/07/08 06:48:08;;;;;;;9.70;8.80;;;21.60;46.00;;;;;;4789477;29;20296;-80
2021/07/08 06:50:36;;;;;;;7.97;7.57;;;21.60;46.00;;;;;;4790953;29;20212;-80
2021/07/08 06:53:06;;;;;;;10.10;9.40;;;21.60;45.90;;;;;;4790335;29;20415;-80
2021/07/08 06:55:32;;;;;;;9.27;8.60;;;21.60;45.90;;;;;;4789756;29;20415;-80
2021/07/08 06:57:58;;;;;;;8.63;8.13;;;21.60;45.80;;;;;;4790341;29;20808;-82
2021/07/08 07:00:30;;;;;;;8.90;8.20;;;21.60;45.80;;;;;;4789858;29;20415;-81
2021/07/08 07:02:57;;;;;;;8.87;8.30;;;21.60;45.70;;;;;;4788148;29;20224;-81
2021/07/08 07:05:25;;;;;;;8.37;7.87;;;21.60;45.70;;;;;;4788174;29;20474;-81
2021/07/08 07:07:51;;;;;;;8.23;7.73;;;21.60;45.60;;;;;;4789563;29;20539;-81
2021/07/08 07:10:18;;;;;;;8.00;7.50;;;21.60;45.60;;;;;;4788008;29;20525;-80
2021/07/08 07:12:46;;;;;;;7.20;6.80;;;21.60;45.90;;;;;;4787579;29;20419;-82
2021/07/08 07:15:13;;;;;;;7.50;7.00;;;21.60;45.90;;;;;;4787799;29;20535;-81
2021/07/08 07:17:39;;;;;;;6.80;6.40;;;21.60;46.00;;;;;;4789659;29;20462;-81
2021/07/08 07:20:07;;;;;;;6.40;5.90;;;21.60;46.60;;;;;;4793763;30;20470;-82
2021/07/08 07:22:33;;;;;;;7.30;5.60;;;21.60;46.40;;;;;;4793161;29;20883;-82
2021/07/08 07:24:59;;;;;;;6.13;5.67;;;21.60;46.20;;;;;;4792345;29;20479;-81
2021/07/08 07:27:25;;;;;;;7.47;5.70;;;21.60;46.70;;;;;;4793328;29;20197;-81
2021/07/08 07:29:51;;;;;;;5.20;4.90;;;21.60;46.90;;;;;;4792128;29;20434;-81
2021/07/08 07:32:16;;;;;;;4.87;4.57;;;21.60;47.10;;;;;;4793765;29;20423;-81
2021/07/08 07:34:42;;;;;;;5.43;4.90;;;21.70;46.90;;;;;;4792372;29;20586;-81
2021/07/08 07:37:08;;;;;;;5.90;5.30;;;21.70;46.70;;;;;;4792306;29;20201;-82
2021/07/08 07:39:33;;;;;;;6.10;5.10;;;21.70;46.90;;;;;;4792049;29;20246;-82
2021/07/08 07:41:59;;;;;;;4.60;4.20;;;21.70;46.70;;;;;;4792311;29;20219;-80
2021/07/08 07:44:24;;;;;;;4.13;3.83;;;21.70;46.90;;;;;;4790414;29;20575;-81
2021/07/08 07:46:51;;;;;;;4.73;4.33;;;21.70;46.90;;;;;;4791294;29;20254;-82
2021/07/08 07:49:25;;;;;;;4.73;4.33;;;21.70;46.70;;;;;;4792762;29;20239;-83
2021/07/08 07:52:23;;;;;;;7.67;4.90;;;21.70;47.10;;;;;;4791473;30;20421;-82
2021/07/08 07:54:49;;;;;;;5.83;4.97;;;21.70;47.10;;;;;;4783069;29;20451;-83
2021/07/08 08:00:15;;;;;;;5.43;4.93;;;21.70;46.90;;;;;;4764510;29;20285;-82
2021/07/08 08:02:43;;;;;;;5.10;4.60;;;21.70;46.90;;;;;;4790164;30;20714;-82
2021/07/08 08:05:21;;;;;;;5.70;4.70;;;21.80;47.00;;;;;;4789762;29;20550;-81
2021/07/08 08:10:37;;;;;;;5.70;5.30;;;21.70;47.40;;;;;;4791181;30;20513;-82
2021/07/08 08:13:05;;;;;;;5.23;4.93;;;21.70;47.70;;;;;;4789328;29;20431;-82
2021/07/08 08:15:30;;;;;;;4.77;4.37;;;21.70;47.60;;;;;;4790286;29;20430;-82
2021/07/08 08:18:00;;;;;;;5.03;4.67;;;21.70;47.30;;;;;;4790463;30;20446;-82
2021/07/08 08:20:26;;;;;;;4.90;4.60;;;21.70;47.10;;;;;;4790030;29;20216;-82
2021/07/08 08:22:51;;;;;;;4.90;4.50;;;21.70;47.00;;;;;;4789516;30;20443;-83
2021/07/08 08:25:17;;;;;;;4.97;4.67;;;21.70;47.10;;;;;;4789814;29;20217;-82
2021/07/08 08:27:45;;;;;;;4.17;3.83;;;21.80;47.40;;;;;;4790919;29;20276;-80
2021/07/08 08:30:13;;;;;;;4.30;4.00;;;21.70;47.20;;;;;;4790023;29;20238;-82
2021/07/08 08:32:40;;;;;;;5.77;4.43;;;21.70;47.40;;;;;;4789675;29;20518;-81
2021/07/08 08:35:06;;;;;;;5.60;5.10;;;21.80;47.60;;;;;;4789952;29;20924;-81
2021/07/08 08:37:32;;;;;;;4.40;4.20;;;21.70;47.90;;;;;;4792578;29;20462;-82
2021/07/08 08:39:58;;;;;;;5.03;4.73;;;21.70;48.10;;;;;;4793516;30;20431;-81
2021/07/08 08:42:27;;;;;;;4.67;4.37;;;21.70;48.20;;;;;;4792244;29;20193;-81
2021/07/08 08:44:54;;;;;;;4.37;4.17;;;21.70;47.80;;;;;;4794270;29;20217;-82
2021/07/08 08:48:03;;;;;;;;;;;;;;;;;;;;;
2021/07/08 08:50:48;;;;;;;8.13;4.60;;;21.70;47.60;;;;;;4791024;29;20518;-82
2021/07/08 08:53:16;;;;;;;4.60;4.30;;;21.80;47.50;;;;;;4791095;30;20467;-80
2021/07/08 08:55:44;;;;;;;5.43;4.93;;;21.80;47.30;;;;;;4790430;29;20442;-81
2021/07/08 08:58:46;;;;;;;4.70;4.20;;;21.70;47.80;;;;;;4793362;29;20467;-81
2021/07/08 09:01:19;;;;;;;5.17;4.87;;;21.70;47.90;;;;;;4789837;29;20449;-81
2021/07/08 09:08:00;;;;;;;5.60;5.10;;;21.80;47.60;;;;;;4752846;30;20449;-82
2021/07/08 09:10:29;;;;;;;4.60;4.40;;;21.80;47.70;;;;;;4757118;30;20471;-81
2021/07/08 09:12:58;;;;;;;5.00;4.70;;;21.80;47.70;;;;;;4789863;29;20494;-81
2021/07/08 09:15:23;;;;;;;5.53;5.17;;;21.80;47.90;;;;;;4790976;29;20466;-81
2021/07/08 09:17:49;;;;;;;4.50;4.20;;;21.80;47.90;;;;;;4790801;29;20443;-80
2021/07/08 09:20:20;;;;;;;4.90;4.60;;;21.80;47.80;;;;;;4809187;29;20193;-80
2021/07/08 09:22:47;;;;;;;6.43;4.83;;;21.80;47.60;;;;;;4793326;29;20193;-81
2021/07/08 09:25:19;;;;;;;6.23;4.97;;;21.80;48.00;;;;;;4792361;29;20825;-80
2021/07/08 09:27:46;;;;;;;4.67;4.37;;;21.80;47.70;;;;;;4794158;30;20451;-80
2021/07/08 09:30:38;;;;;;;5.07;4.77;;;21.80;47.70;;;;;;4794074;29;20419;-81
2021/07/08 09:33:44;;;;;;;5.47;4.97;;;21.80;48.10;;;;;;4791119;30;20459;-83
2021/07/08 09:36:16;;;;;;;4.47;4.27;;;21.70;47.90;;;;;;4790567;29;20989;-81
2021/07/08 09:38:49;;;;;;;4.93;4.47;;;21.80;47.80;;;;;;4793336;30;20430;-81
2021/07/08 09:41:25;;;;;;;4.70;4.50;;;21.80;48.10;;;;;;4792883;30;21058;-81
2021/07/08 09:43:51;;;;;;;4.33;4.03;;;21.70;48.30;;;;;;4793292;29;20498;-81
2021/07/08 09:46:17;;;;;;;4.17;3.90;;;21.70;48.10;;;;;;4794443;29;20471;-80
2021/07/08 09:49:03;;;;;;;4.80;4.50;;;21.70;47.90;;;;;;4794830;29;20455;-81
2021/07/08 09:51:30;;;;;;;4.73;4.43;;;21.80;48.00;;;;;;4792962;30;20272;-81
2021/07/08 09:54:04;;;;;;;4.63;4.23;;;21.70;47.70;;;;;;4793368;29;20419;-81
2021/07/08 09:56:56;;;;;;;4.33;4.13;;;21.80;47.80;;;;;;4806223;29;20452;-82
2021/07/08 09:59:35;;;;;;;4.30;4.00;;;21.80;47.70;;;;;;4810858;29;20467;-80
2021/07/08 10:02:10;;;;;;;4.40;4.00;;;21.70;47.60;;;;;;4811633;29;20418;-81
2021/07/08 10:04:39;;;;;;;4.10;3.80;;;21.80;47.60;;;;;;4811321;29;20488;-81
2021/07/08 10:07:07;;;;;;;4.50;3.93;;;21.80;47.50;;;;;;4811337;29;20542;-83
2021/07/08 10:09:33;;;;;;;4.10;3.70;;;21.80;47.40;;;;;;4812685;29;20441;-81
2021/07/08 10:12:07;;;;;;;4.07;3.87;;;21.70;47.30;;;;;;4812355;29;20422;-82
2021/07/08 10:14:32;;;;;;;4.60;4.40;;;21.80;47.30;;;;;;4827548;29;20672;-81
2021/07/08 10:17:38;;;;;;;4.10;3.90;;;21.70;47.00;;;;;;4813598;29;20467;-82
2021/07/08 10:20:12;;;;;;;4.20;3.90;;;21.80;47.00;;;;;;4769615;30;20206;-81
2021/07/08 10:22:46;;;;;;;4.00;3.70;;;21.80;47.20;;;;;;4776556;30;20420;-81
2021/07/08 10:25:18;;;;;;;4.17;3.97;;;21.70;46.90;;;;;;4774309;30;20516;-82
2021/07/08 10:27:44;;;;;;;4.00;3.70;;;21.80;46.50;;;;;;4775679;30;20531;-80
2021/07/08 10:30:21;;;;;;;3.80;3.60;;;21.80;46.60;;;;;;4773098;30;20444;-81
2021/07/08 10:33:19;;;;;;;3.97;3.67;;;21.80;45.60;;;;;;4772086;30;20469;-82
2021/07/08 10:35:46;;;;;;;4.10;3.90;;;21.80;46.10;;;;;;4770673;30;20443;-80
2021/07/08 10:38:36;;;;;;;3.63;3.43;;;21.80;45.90;;;;;;4772240;29;20460;-80
2021/07/08 10:41:21;;;;;;;4.37;4.17;;;21.80;46.00;;;;;;4811042;29;20772;-81
2021/07/08 10:43:47;;;;;;;3.73;3.53;;;21.80;46.30;;;;;;4801738;29;20471;-83
2021/07/08 10:46:19;;;;;;;4.70;4.40;;;21.80;46.30;;;;;;4795186;30;20490;-80
2021/07/08 10:48:49;;;;;;;3.87;3.67;;;21.80;46.20;;;;;;4792399;29;20642;-79
2021/07/08 10:51:30;;;;;;;3.50;3.30;;;21.80;46.20;;;;;;4793643;30;20915;-80
2021/07/08 10:54:19;;;;;;;4.00;3.80;;;21.80;46.00;;;;;;4822326;29;20430;-80
2021/07/08 10:56:45;;;;;;;3.60;3.40;;;21.80;45.80;;;;;;4778398;30;20461;-79
2021/07/08 10:59:14;;;;;;;6.80;3.50;;;21.80;45.80;;;;;;4793996;29;20506;-81
2021/07/08 11:01:42;;;;;;;4.00;3.73;;;21.80;45.60;;;;;;4793444;29;20180;-80
2021/07/08 11:04:09;;;;;;;3.73;3.43;;;21.80;45.60;;;;;;4792834;29;20471;-80
2021/07/08 11:06:41;;;;;;;3.40;3.20;;;21.80;45.80;;;;;;4791554;29;20454;-81
2021/07/08 11:09:07;;;;;;;4.00;3.80;;;21.80;45.90;;;;;;4792385;29;20426;-80
2021/07/08 11:11:37;;;;;;;3.90;3.60;;;21.80;45.60;;;;;;4793090;30;20424;-81
2021/07/08 11:14:27;;;;;;;3.80;3.60;;;21.80;45.70;;;;;;4791313;30;20217;-80
2021/07/08 11:17:17;;;;;;;3.90;3.70;;;21.80;45.80;;;;;;4792852;29;20449;-80
2021/07/08 11:19:47;;;;;;;3.63;3.43;;;21.80;45.70;;;;;;4792510;30;20437;-80
2021/07/08 11:22:25;;;;;;;3.73;3.53;;;21.80;45.70;;;;;;4792550;29;20423;-81
2021/07/08 11:24:53;;;;;;;4.00;3.80;;;21.80;45.70;;;;;;4792344;29;20555;-80
2021/07/08 11:27:32;;;;;;;3.33;3.23;;;21.80;45.70;;;;;;4793349;29;20455;-81
2021/07/08 11:30:03;;;;;;;3.60;3.40;;;21.80;45.70;;;;;;4792548;29;20452;-80
2021/07/08 11:32:35;;;;;;;4.30;3.90;;;21.80;45.60;;;;;;4793101;29;20467;-80
2021/07/08 11:35:12;;;;;;;3.80;3.50;;;21.80;45.70;;;;;;4794968;30;20958;-81
2021/07/08 11:37:44;;;;;;;4.37;3.73;;;21.80;45.80;;;;;;4792996;30;21030;-81
2021/07/08 11:40:13;;;;;;;3.70;3.40;;;21.80;45.90;;;;;;4793713;30;20972;-83
2021/07/08 11:42:46;;;;;;;3.63;3.50;;;21.80;45.90;;;;;;4792348;30;20432;-82
2021/07/08 11:45:16;;;;;;;3.40;3.20;;;21.80;45.90;;;;;;4792449;30;21006;-83
2021/07/08 11:47:49;;;;;;;3.43;3.23;;;21.80;45.90;;;;;;4792686;30;20499;-84
2021/07/08 11:50:17;;;;;;;4.00;3.80;;;21.80;46.00;;;;;;4795158;29;20415;-82
2021/07/08 11:52:44;;;;;;;4.67;4.37;;;21.80;46.80;;;;;;4796370;29;20431;-79
2021/07/08 11:55:10;;;;;;;3.80;3.60;;;21.80;46.70;;;;;;4794758;29;20425;-80
2021/07/08 11:58:09;;;;;;;4.07;3.87;;;21.80;46.90;;;;;;4795996;29;20448;-80
2021/07/08 12:00:43;;;;;;;4.63;3.80;;;21.80;47.00;;;;;;4773569;29;20507;-80
2021/07/08 12:03:22;;;;;;;4.03;3.30;;;21.80;46.90;;;;;;4794613;29;20446;-81
2021/07/08 12:05:51;;;;;;;5.50;3.80;;;21.80;47.10;;;;;;4795183;30;20852;-80
2021/07/08 12:09:22;;;;;;;7.17;3.20;;;21.80;47.40;;;;;;4794337;29;20415;-81
2021/07/08 12:11:37;;;;;;;3.80;3.60;;;21.80;47.10;;;;;;4794274;29;20476;-81
2021/07/08 12:14:07;;;;;;;3.20;3.10;;;21.80;47.60;;;;;;4793456;30;20469;-80
2021/07/08 12:16:41;;;;;;;3.10;3.00;;;21.80;47.80;;;;;;4792598;30;20447;-81
2021/07/08 12:19:26;;;;;;;3.20;3.10;;;21.80;48.00;;;;;;4793918;30;20411;-81
2021/07/08 12:21:57;;;;;;;4.00;3.30;;;21.80;48.10;;;;;;4793708;30;20945;-81
2021/07/08 12:25:07;;;;;;;3.30;3.00;;;21.80;47.90;;;;;;4794728;30;20961;-81
2021/07/08 12:27:39;;;;;;;3.83;3.63;;;21.80;47.70;;;;;;4791655;29;20459;-80
2021/07/08 12:30:14;;;;;;;3.00;2.73;;;21.80;48.20;;;;;;4793451;29;20423;-79
2021/07/08 12:32:40;;;;;;;3.40;3.20;;;21.80;48.10;;;;;;4793821;29;20411;-80
2021/07/08 12:35:12;;;;;;;3.20;3.00;;;21.80;48.10;;;;;;4794012;30;20450;-80
2021/07/08 12:37:45;;;;;;;2.87;2.77;;;21.80;48.40;;;;;;4807409;29;20205;-79
2021/07/08 12:40:27;;;;;;;3.20;3.00;;;21.80;48.60;;;;;;4790312;30;20526;-80
2021/07/08 12:43:16;;;;;;;3.40;3.30;;;21.80;49.10;;;;;;4790521;30;20427;-80
2021/07/08 12:45:43;;;;;;;3.17;3.07;;;21.80;48.60;;;;;;4790252;29;20542;-80
2021/07/08 12:48:12;;;;;;;3.60;3.30;;;21.80;48.70;;;;;;4791303;30;20443;-79
2021/07/08 12:50:40;;;;;;;2.77;2.67;;;21.80;48.60;;;;;;4792186;29;20975;-80
2021/07/08 12:53:14;;;;;;;3.00;2.90;;;21.80;48.70;;;;;;4792087;29;20435;-81
2021/07/08 12:55:58;;;;;;;3.17;3.07;;;21.80;48.80;;;;;;4792915;29;20930;-82
2021/07/08 12:58:26;;;;;;;3.00;2.80;;;21.80;48.80;;;;;;4792086;30;20455;-79
2021/07/08 13:01:37;;;;;;;3.07;2.97;;;21.80;48.90;;;;;;4789787;29;20455;-81
2021/07/08 13:04:25;;;;;;;2.90;2.80;;;21.80;48.90;;;;;;4788749;30;20475;-80
2021/07/08 13:07:49;;;;;;;3.10;3.00;;;21.80;48.80;;;;;;4790144;30;20492;-81
2021/07/08 13:10:15;;;;;;;2.80;2.70;;;21.80;48.80;;;;;;4779286;29;20432;-81
2021/07/08 13:12:41;;;;;;;3.27;3.17;;;21.80;48.90;;;;;;4796298;29;20426;-81